sensor_id;sensor_type;location;lat;lon;timestamp;P1;durP1;ratioP1;P2;durP2;ratioP2
56653;SDS011;45096;52.302;4.634;2022-12-05T00:00:07;21.90;;;13.38;;
56653;SDS011;45096;52.302;4.634;2022-12-05T00:02:33;26.30;;;13.63;;
56653;SDS011;45096;52.302;4.634;2022-12-05T00:04:59;23.35;;;12.95;;
56653;SDS011;45096;52.302;4.634;2022-12-05T00:07:24;21.90;;;12.55;;
56653;SDS011;45096;52.302;4.634;2022-12-05T00:09:50;21.08;;;13.88;;
56653;SDS011;45096;52.302;4.634;2022-12-05T00:12:15;25.25;;;12.48;;
56653;SDS011;45096;52.302;4.634;2022-12-05T00:14:40;28.70;;;14.52;;
56653;SDS011;45096;52.302;4.634;2022-12-05T00:17:07;23.35;;;13.98;;
56653;SDS011;45096;52.302;4.634;2022-12-05T00:19:32;22.63;;;13.90;;
56653;SDS011;45096;52.302;4.634;2022-12-05T00:21:58;22.45;;;13.73;;
56653;SDS011;45096;52.302;4.634;2022-12-05T00:24:23;24.33;;;14.40;;
56653;SDS011;45096;52.302;4.634;2022-12-05T00:26:49;24.05;;;13.80;;
56653;SDS011;45096;52.302;4.634;2022-12-05T00:29:14;23.08;;;13.80;;
56653;SDS011;45096;52.302;4.634;2022-12-05T00:31:40;25.05;;;13.52;;
56653;SDS011;45096;52.302;4.634;2022-12-05T00:34:07;26.60;;;14.55;;
56653;SDS011;45096;52.302;4.634;2022-12-05T00:36:32;27.48;;;14.65;;
56653;SDS011;45096;52.302;4.634;2022-12-05T00:39:00;27.17;;;15.27;;
56653;SDS011;45096;52.302;4.634;2022-12-05T00:41:26;25.80;;;14.52;;
56653;SDS011;45096;52.302;4.634;2022-12-05T00:43:53;26.48;;;14.45;;
56653;SDS011;45096;52.302;4.634;2022-12-05T00:46:19;22.67;;;14.35;;
56653;SDS011;45096;52.302;4.634;2022-12-05T00:48:46;23.80;;;13.85;;
56653;SDS011;45096;52.302;4.634;2022-12-05T00:51:14;23.77;;;14.27;;
56653;SDS011;45096;52.302;4.634;2022-12-05T00:53:41;23.35;;;14.10;;
56653;SDS011;45096;52.302;4.634;2022-12-05T00:56:09;24.48;;;13.98;;
56653;SDS011;45096;52.302;4.634;2022-12-05T00:58:35;27.60;;;13.88;;
56653;SDS011;45096;52.302;4.634;2022-12-05T01:01:04;24.58;;;14.07;;
56653;SDS011;45096;52.302;4.634;2022-12-05T01:03:30;23.87;;;13.50;;
56653;SDS011;45096;52.302;4.634;2022-12-05T01:05:57;23.80;;;13.90;;
56653;SDS011;45096;52.302;4.634;2022-12-05T01:08:24;24.42;;;14.95;;
56653;SDS011;45096;52.302;4.634;2022-12-05T01:10:51;23.30;;;13.70;;
56653;SDS011;45096;52.302;4.634;2022-12-05T01:13:17;25.73;;;13.23;;
56653;SDS011;45096;52.302;4.634;2022-12-05T01:15:42;24.95;;;14.05;;
56653;SDS011;45096;52.302;4.634;2022-12-05T01:18:08;23.55;;;14.65;;
56653;SDS011;45096;52.302;4.634;2022-12-05T01:20:33;22.17;;;12.57;;
56653;SDS011;45096;52.302;4.634;2022-12-05T01:22:59;23.20;;;13.60;;
56653;SDS011;45096;52.302;4.634;2022-12-05T01:25:25;30.80;;;15.13;;
56653;SDS011;45096;52.302;4.634;2022-12-05T01:27:51;29.02;;;15.77;;
56653;SDS011;45096;52.302;4.634;2022-12-05T01:30:16;25.90;;;14.10;;
56653;SDS011;45096;52.302;4.634;2022-12-05T01:32:42;22.70;;;14.27;;
56653;SDS011;45096;52.302;4.634;2022-12-05T01:35:08;26.00;;;14.48;;
56653;SDS011;45096;52.302;4.634;2022-12-05T01:37:34;23.92;;;13.73;;
56653;SDS011;45096;52.302;4.634;2022-12-05T01:39:59;26.42;;;13.98;;
56653;SDS011;45096;52.302;4.634;2022-12-05T01:42:26;25.25;;;13.60;;
56653;SDS011;45096;52.302;4.634;2022-12-05T01:45:02;26.17;;;14.50;;
56653;SDS011;45096;52.302;4.634;2022-12-05T01:47:32;26.10;;;13.73;;
56653;SDS011;45096;52.302;4.634;2022-12-05T01:49:59;29.20;;;13.95;;
56653;SDS011;45096;52.302;4.634;2022-12-05T01:52:25;25.45;;;12.55;;
56653;SDS011;45096;52.302;4.634;2022-12-05T01:54:53;20.88;;;12.93;;
56653;SDS011;45096;52.302;4.634;2022-12-05T01:57:20;21.95;;;13.93;;
56653;SDS011;45096;52.302;4.634;2022-12-05T01:59:49;24.33;;;13.13;;
56653;SDS011;45096;52.302;4.634;2022-12-05T02:02:16;24.33;;;13.68;;
56653;SDS011;45096;52.302;4.634;2022-12-05T02:04:42;22.58;;;12.10;;
56653;SDS011;45096;52.302;4.634;2022-12-05T02:07:10;24.08;;;12.68;;
56653;SDS011;45096;52.302;4.634;2022-12-05T02:09:35;23.38;;;13.38;;
56653;SDS011;45096;52.302;4.634;2022-12-05T02:12:01;21.77;;;12.73;;
56653;SDS011;45096;52.302;4.634;2022-12-05T02:14:29;25.90;;;13.60;;
56653;SDS011;45096;52.302;4.634;2022-12-05T02:17:01;22.08;;;12.15;;
56653;SDS011;45096;52.302;4.634;2022-12-05T02:22:27;24.17;;;13.02;;
56653;SDS011;45096;52.302;4.634;2022-12-05T02:25:17;21.70;;;12.27;;
56653;SDS011;45096;52.302;4.634;2022-12-05T02:27:57;21.67;;;12.68;;
56653;SDS011;45096;52.302;4.634;2022-12-05T02:30:35;21.50;;;12.30;;
56653;SDS011;45096;52.302;4.634;2022-12-05T02:33:05;24.23;;;12.15;;
56653;SDS011;45096;52.302;4.634;2022-12-05T02:35:38;21.55;;;12.48;;
56653;SDS011;45096;52.302;4.634;2022-12-05T02:38:12;20.13;;;12.18;;
56653;SDS011;45096;52.302;4.634;2022-12-05T02:40:42;19.63;;;11.80;;
56653;SDS011;45096;52.302;4.634;2022-12-05T02:43:13;22.75;;;11.75;;
56653;SDS011;45096;52.302;4.634;2022-12-05T02:45:42;20.13;;;12.00;;
56653;SDS011;45096;52.302;4.634;2022-12-05T02:48:09;21.67;;;12.10;;
56653;SDS011;45096;52.302;4.634;2022-12-05T02:50:35;19.80;;;11.73;;
56653;SDS011;45096;52.302;4.634;2022-12-05T02:53:02;20.13;;;12.13;;
56653;SDS011;45096;52.302;4.634;2022-12-05T02:55:29;20.58;;;11.05;;
56653;SDS011;45096;52.302;4.634;2022-12-05T02:57:56;15.55;;;10.80;;
56653;SDS011;45096;52.302;4.634;2022-12-05T03:00:23;20.20;;;11.57;;
56653;SDS011;45096;52.302;4.634;2022-12-05T03:02:51;21.23;;;11.40;;
56653;SDS011;45096;52.302;4.634;2022-12-05T03:05:18;20.05;;;11.55;;
56653;SDS011;45096;52.302;4.634;2022-12-05T03:07:50;17.10;;;11.50;;
56653;SDS011;45096;52.302;4.634;2022-12-05T03:10:18;19.42;;;11.55;;
56653;SDS011;45096;52.302;4.634;2022-12-05T03:12:47;16.60;;;10.43;;
56653;SDS011;45096;52.302;4.634;2022-12-05T03:15:14;19.98;;;11.77;;
56653;SDS011;45096;52.302;4.634;2022-12-05T03:17:43;19.55;;;11.38;;
56653;SDS011;45096;52.302;4.634;2022-12-05T03:20:14;16.15;;;11.02;;
56653;SDS011;45096;52.302;4.634;2022-12-05T03:22:45;19.63;;;12.10;;
56653;SDS011;45096;52.302;4.634;2022-12-05T03:25:13;22.27;;;13.38;;
56653;SDS011;45096;52.302;4.634;2022-12-05T03:27:39;21.30;;;10.98;;
56653;SDS011;45096;52.302;4.634;2022-12-05T03:30:11;21.67;;;11.68;;
56653;SDS011;45096;52.302;4.634;2022-12-05T03:32:40;16.10;;;10.63;;
56653;SDS011;45096;52.302;4.634;2022-12-05T03:35:07;19.80;;;12.50;;
56653;SDS011;45096;52.302;4.634;2022-12-05T03:37:40;20.33;;;12.60;;
56653;SDS011;45096;52.302;4.634;2022-12-05T03:40:10;21.88;;;11.85;;
56653;SDS011;45096;52.302;4.634;2022-12-05T03:42:40;21.02;;;11.95;;
56653;SDS011;45096;52.302;4.634;2022-12-05T03:45:09;19.52;;;11.90;;
56653;SDS011;45096;52.302;4.634;2022-12-05T03:47:37;20.30;;;12.25;;
56653;SDS011;45096;52.302;4.634;2022-12-05T03:50:08;22.63;;;12.18;;
56653;SDS011;45096;52.302;4.634;2022-12-05T03:52:37;19.27;;;12.85;;
56653;SDS011;45096;52.302;4.634;2022-12-05T03:55:07;19.48;;;12.32;;
56653;SDS011;45096;52.302;4.634;2022-12-05T03:57:34;18.00;;;12.10;;
56653;SDS011;45096;52.302;4.634;2022-12-05T04:00:03;22.25;;;12.80;;
56653;SDS011;45096;52.302;4.634;2022-12-05T04:02:31;19.73;;;11.85;;
56653;SDS011;45096;52.302;4.634;2022-12-05T04:05:00;21.08;;;12.63;;
56653;SDS011;45096;52.302;4.634;2022-12-05T04:07:27;20.77;;;12.18;;
56653;SDS011;45096;52.302;4.634;2022-12-05T04:09:56;19.30;;;11.82;;
56653;SDS011;45096;52.302;4.634;2022-12-05T04:12:24;20.48;;;12.27;;
56653;SDS011;45096;52.302;4.634;2022-12-05T04:14:52;19.60;;;11.90;;
56653;SDS011;45096;52.302;4.634;2022-12-05T04:17:20;20.77;;;11.80;;
56653;SDS011;45096;52.302;4.634;2022-12-05T04:19:49;18.75;;;11.88;;
56653;SDS011;45096;52.302;4.634;2022-12-05T04:22:17;20.27;;;11.52;;
56653;SDS011;45096;52.302;4.634;2022-12-05T04:24:43;19.63;;;11.32;;
56653;SDS011;45096;52.302;4.634;2022-12-05T04:27:16;17.58;;;10.82;;
56653;SDS011;45096;52.302;4.634;2022-12-05T04:29:48;17.27;;;10.57;;
56653;SDS011;45096;52.302;4.634;2022-12-05T04:32:18;24.52;;;12.13;;
56653;SDS011;45096;52.302;4.634;2022-12-05T04:34:45;17.88;;;10.90;;
56653;SDS011;45096;52.302;4.634;2022-12-05T04:37:15;17.90;;;11.85;;
56653;SDS011;45096;52.302;4.634;2022-12-05T04:39:43;17.63;;;11.02;;
56653;SDS011;45096;52.302;4.634;2022-12-05T04:42:13;19.95;;;12.18;;
56653;SDS011;45096;52.302;4.634;2022-12-05T04:44:41;18.30;;;11.55;;
56653;SDS011;45096;52.302;4.634;2022-12-05T04:47:10;17.60;;;11.05;;
56653;SDS011;45096;52.302;4.634;2022-12-05T04:49:36;17.35;;;11.48;;
56653;SDS011;45096;52.302;4.634;2022-12-05T04:52:06;16.77;;;11.63;;
56653;SDS011;45096;52.302;4.634;2022-12-05T04:54:34;17.80;;;11.45;;
56653;SDS011;45096;52.302;4.634;2022-12-05T04:57:04;18.33;;;11.65;;
56653;SDS011;45096;52.302;4.634;2022-12-05T04:59:33;22.15;;;12.80;;
56653;SDS011;45096;52.302;4.634;2022-12-05T05:02:00;20.48;;;12.23;;
56653;SDS011;45096;52.302;4.634;2022-12-05T05:04:29;21.80;;;11.65;;
56653;SDS011;45096;52.302;4.634;2022-12-05T05:06:58;20.00;;;12.05;;
56653;SDS011;45096;52.302;4.634;2022-12-05T05:09:23;23.42;;;12.82;;
56653;SDS011;45096;52.302;4.634;2022-12-05T05:11:49;20.73;;;12.63;;
56653;SDS011;45096;52.302;4.634;2022-12-05T05:14:14;21.05;;;12.35;;
56653;SDS011;45096;52.302;4.634;2022-12-05T05:16:41;19.33;;;12.40;;
56653;SDS011;45096;52.302;4.634;2022-12-05T05:19:08;23.90;;;12.75;;
56653;SDS011;45096;52.302;4.634;2022-12-05T05:21:35;23.27;;;13.15;;
56653;SDS011;45096;52.302;4.634;2022-12-05T05:24:02;24.00;;;12.73;;
56653;SDS011;45096;52.302;4.634;2022-12-05T05:26:28;21.98;;;12.52;;
56653;SDS011;45096;52.302;4.634;2022-12-05T05:28:57;23.65;;;12.50;;
56653;SDS011;45096;52.302;4.634;2022-12-05T05:31:23;19.35;;;11.65;;
56653;SDS011;45096;52.302;4.634;2022-12-05T05:33:51;21.67;;;11.98;;
56653;SDS011;45096;52.302;4.634;2022-12-05T05:36:18;24.30;;;13.10;;
56653;SDS011;45096;52.302;4.634;2022-12-05T05:38:45;22.60;;;13.00;;
56653;SDS011;45096;52.302;4.634;2022-12-05T05:41:11;18.13;;;11.85;;
56653;SDS011;45096;52.302;4.634;2022-12-05T05:43:38;20.92;;;13.18;;
56653;SDS011;45096;52.302;4.634;2022-12-05T05:46:04;23.08;;;12.95;;
56653;SDS011;45096;52.302;4.634;2022-12-05T05:48:29;18.27;;;11.75;;
56653;SDS011;45096;52.302;4.634;2022-12-05T05:50:58;19.65;;;11.65;;
56653;SDS011;45096;52.302;4.634;2022-12-05T05:53:23;16.92;;;11.93;;
56653;SDS011;45096;52.302;4.634;2022-12-05T05:55:49;20.27;;;12.93;;
56653;SDS011;45096;52.302;4.634;2022-12-05T05:58:14;22.52;;;12.35;;
56653;SDS011;45096;52.302;4.634;2022-12-05T06:00:40;21.13;;;12.05;;
56653;SDS011;45096;52.302;4.634;2022-12-05T06:03:05;20.70;;;12.13;;
56653;SDS011;45096;52.302;4.634;2022-12-05T06:05:31;19.90;;;12.00;;
56653;SDS011;45096;52.302;4.634;2022-12-05T06:07:57;21.75;;;12.35;;
56653;SDS011;45096;52.302;4.634;2022-12-05T06:10:23;19.90;;;12.43;;
56653;SDS011;45096;52.302;4.634;2022-12-05T06:12:48;18.83;;;11.52;;
56653;SDS011;45096;52.302;4.634;2022-12-05T06:15:14;19.00;;;11.32;;
56653;SDS011;45096;52.302;4.634;2022-12-05T06:17:39;20.92;;;11.70;;
56653;SDS011;45096;52.302;4.634;2022-12-05T06:20:05;19.55;;;11.70;;
56653;SDS011;45096;52.302;4.634;2022-12-05T06:22:31;18.38;;;10.98;;
56653;SDS011;45096;52.302;4.634;2022-12-05T06:24:58;17.45;;;10.40;;
56653;SDS011;45096;52.302;4.634;2022-12-05T06:27:24;16.80;;;10.55;;
56653;SDS011;45096;52.302;4.634;2022-12-05T06:29:49;16.92;;;11.13;;
56653;SDS011;45096;52.302;4.634;2022-12-05T06:32:14;17.30;;;11.38;;
56653;SDS011;45096;52.302;4.634;2022-12-05T06:34:40;16.50;;;10.63;;
56653;SDS011;45096;52.302;4.634;2022-12-05T06:37:05;16.90;;;10.48;;
56653;SDS011;45096;52.302;4.634;2022-12-05T06:39:31;15.77;;;9.80;;
56653;SDS011;45096;52.302;4.634;2022-12-05T06:41:58;14.30;;;9.55;;
56653;SDS011;45096;52.302;4.634;2022-12-05T06:44:23;13.55;;;8.95;;
56653;SDS011;45096;52.302;4.634;2022-12-05T06:46:49;11.60;;;8.45;;
56653;SDS011;45096;52.302;4.634;2022-12-05T06:49:14;13.57;;;8.93;;
56653;SDS011;45096;52.302;4.634;2022-12-05T06:51:39;11.40;;;8.60;;
56653;SDS011;45096;52.302;4.634;2022-12-05T06:54:05;10.90;;;8.52;;
56653;SDS011;45096;52.302;4.634;2022-12-05T06:56:30;13.25;;;8.90;;
56653;SDS011;45096;52.302;4.634;2022-12-05T06:58:57;11.70;;;8.02;;
56653;SDS011;45096;52.302;4.634;2022-12-05T07:01:23;10.93;;;7.82;;
56653;SDS011;45096;52.302;4.634;2022-12-05T07:03:49;14.27;;;8.75;;
56653;SDS011;45096;52.302;4.634;2022-12-05T07:06:14;14.02;;;8.68;;
56653;SDS011;45096;52.302;4.634;2022-12-05T07:08:40;12.65;;;7.60;;
56653;SDS011;45096;52.302;4.634;2022-12-05T07:11:05;12.63;;;9.07;;
56653;SDS011;45096;52.302;4.634;2022-12-05T07:13:31;11.75;;;8.80;;
56653;SDS011;45096;52.302;4.634;2022-12-05T07:15:58;13.05;;;8.52;;
56653;SDS011;45096;52.302;4.634;2022-12-05T07:18:24;9.45;;;7.50;;
56653;SDS011;45096;52.302;4.634;2022-12-05T07:20:54;12.20;;;8.50;;
56653;SDS011;45096;52.302;4.634;2022-12-05T07:23:20;11.25;;;8.48;;
56653;SDS011;45096;52.302;4.634;2022-12-05T07:25:46;13.18;;;7.95;;
56653;SDS011;45096;52.302;4.634;2022-12-05T07:28:11;10.77;;;7.93;;
56653;SDS011;45096;52.302;4.634;2022-12-05T07:30:36;9.88;;;7.32;;
56653;SDS011;45096;52.302;4.634;2022-12-05T07:33:03;11.27;;;7.93;;
56653;SDS011;45096;52.302;4.634;2022-12-05T07:35:29;9.73;;;6.85;;
56653;SDS011;45096;52.302;4.634;2022-12-05T07:37:54;9.38;;;7.13;;
56653;SDS011;45096;52.302;4.634;2022-12-05T07:40:20;10.55;;;7.35;;
56653;SDS011;45096;52.302;4.634;2022-12-05T07:42:46;9.32;;;7.68;;
56653;SDS011;45096;52.302;4.634;2022-12-05T07:45:12;7.97;;;7.18;;
56653;SDS011;45096;52.302;4.634;2022-12-05T07:47:37;9.52;;;7.38;;
56653;SDS011;45096;52.302;4.634;2022-12-05T07:50:05;10.77;;;7.03;;
56653;SDS011;45096;52.302;4.634;2022-12-05T07:52:31;8.88;;;6.85;;
56653;SDS011;45096;52.302;4.634;2022-12-05T07:54:56;9.68;;;7.32;;
56653;SDS011;45096;52.302;4.634;2022-12-05T07:57:21;10.07;;;6.95;;
56653;SDS011;45096;52.302;4.634;2022-12-05T07:59:47;8.32;;;6.82;;
56653;SDS011;45096;52.302;4.634;2022-12-05T08:02:12;7.90;;;6.97;;
56653;SDS011;45096;52.302;4.634;2022-12-05T08:04:38;10.00;;;7.43;;
56653;SDS011;45096;52.302;4.634;2022-12-05T08:07:04;7.32;;;6.63;;
56653;SDS011;45096;52.302;4.634;2022-12-05T08:09:30;7.22;;;6.53;;
56653;SDS011;45096;52.302;4.634;2022-12-05T08:11:55;7.65;;;6.75;;
56653;SDS011;45096;52.302;4.634;2022-12-05T08:14:20;8.38;;;6.32;;
56653;SDS011;45096;52.302;4.634;2022-12-05T08:16:46;8.43;;;7.03;;
56653;SDS011;45096;52.302;4.634;2022-12-05T08:19:11;7.80;;;5.72;;
56653;SDS011;45096;52.302;4.634;2022-12-05T08:21:37;9.25;;;6.10;;
56653;SDS011;45096;52.302;4.634;2022-12-05T08:24:04;7.63;;;6.05;;
56653;SDS011;45096;52.302;4.634;2022-12-05T08:26:31;8.20;;;6.15;;
56653;SDS011;45096;52.302;4.634;2022-12-05T08:28:58;6.85;;;5.80;;
56653;SDS011;45096;52.302;4.634;2022-12-05T08:31:24;6.68;;;5.68;;
56653;SDS011;45096;52.302;4.634;2022-12-05T08:33:51;8.25;;;6.03;;
56653;SDS011;45096;52.302;4.634;2022-12-05T08:36:17;10.18;;;5.85;;
56653;SDS011;45096;52.302;4.634;2022-12-05T08:38:43;6.78;;;5.43;;
56653;SDS011;45096;52.302;4.634;2022-12-05T08:41:11;7.72;;;5.65;;
56653;SDS011;45096;52.302;4.634;2022-12-05T08:43:38;5.90;;;5.03;;
56653;SDS011;45096;52.302;4.634;2022-12-05T08:46:04;9.35;;;6.05;;
56653;SDS011;45096;52.302;4.634;2022-12-05T08:48:30;7.68;;;5.30;;
56653;SDS011;45096;52.302;4.634;2022-12-05T08:50:56;6.65;;;5.40;;
56653;SDS011;45096;52.302;4.634;2022-12-05T08:53:22;8.10;;;5.10;;
56653;SDS011;45096;52.302;4.634;2022-12-05T08:55:48;4.70;;;4.18;;
56653;SDS011;45096;52.302;4.634;2022-12-05T08:58:14;5.22;;;4.72;;
56653;SDS011;45096;52.302;4.634;2022-12-05T09:00:40;6.35;;;4.80;;
56653;SDS011;45096;52.302;4.634;2022-12-05T09:03:06;5.30;;;4.80;;
56653;SDS011;45096;52.302;4.634;2022-12-05T09:05:32;6.82;;;5.50;;
56653;SDS011;45096;52.302;4.634;2022-12-05T09:07:58;6.28;;;4.95;;
56653;SDS011;45096;52.302;4.634;2022-12-05T09:10:23;5.18;;;4.68;;
56653;SDS011;45096;52.302;4.634;2022-12-05T09:12:49;5.82;;;4.97;;
56653;SDS011;45096;52.302;4.634;2022-12-05T09:15:16;4.93;;;4.38;;
56653;SDS011;45096;52.302;4.634;2022-12-05T09:17:41;5.05;;;4.55;;
56653;SDS011;45096;52.302;4.634;2022-12-05T09:20:07;9.07;;;5.22;;
56653;SDS011;45096;52.302;4.634;2022-12-05T09:22:33;6.72;;;5.70;;
56653;SDS011;45096;52.302;4.634;2022-12-05T09:24:58;7.55;;;5.57;;
56653;SDS011;45096;52.302;4.634;2022-12-05T09:27:24;6.20;;;5.43;;
56653;SDS011;45096;52.302;4.634;2022-12-05T09:29:49;5.32;;;4.82;;
56653;SDS011;45096;52.302;4.634;2022-12-05T09:32:16;6.32;;;5.18;;
56653;SDS011;45096;52.302;4.634;2022-12-05T09:34:41;4.85;;;4.38;;
56653;SDS011;45096;52.302;4.634;2022-12-05T09:37:07;5.20;;;4.60;;
56653;SDS011;45096;52.302;4.634;2022-12-05T09:39:32;6.95;;;5.70;;
56653;SDS011;45096;52.302;4.634;2022-12-05T09:44:54;5.38;;;4.13;;
56653;SDS011;45096;52.302;4.634;2022-12-05T09:47:28;5.55;;;5.03;;
56653;SDS011;45096;52.302;4.634;2022-12-05T09:49:59;5.65;;;4.45;;
56653;SDS011;45096;52.302;4.634;2022-12-05T09:52:27;6.25;;;5.60;;
56653;SDS011;45096;52.302;4.634;2022-12-05T09:54:53;6.70;;;5.13;;
56653;SDS011;45096;52.302;4.634;2022-12-05T09:57:19;7.97;;;5.20;;
56653;SDS011;45096;52.302;4.634;2022-12-05T09:59:51;5.07;;;4.50;;
56653;SDS011;45096;52.302;4.634;2022-12-05T10:02:19;8.00;;;6.05;;
56653;SDS011;45096;52.302;4.634;2022-12-05T10:04:52;4.75;;;4.32;;
56653;SDS011;45096;52.302;4.634;2022-12-05T10:07:20;6.15;;;5.43;;
56653;SDS011;45096;52.302;4.634;2022-12-05T10:09:53;8.70;;;5.10;;
56653;SDS011;45096;52.302;4.634;2022-12-05T10:12:32;6.57;;;5.35;;
56653;SDS011;45096;52.302;4.634;2022-12-05T10:15:08;8.75;;;5.53;;
56653;SDS011;45096;52.302;4.634;2022-12-05T10:17:37;6.63;;;5.10;;
56653;SDS011;45096;52.302;4.634;2022-12-05T10:20:08;7.20;;;5.13;;
56653;SDS011;45096;52.302;4.634;2022-12-05T10:22:38;6.53;;;4.97;;
56653;SDS011;45096;52.302;4.634;2022-12-05T10:25:08;5.82;;;4.95;;
56653;SDS011;45096;52.302;4.634;2022-12-05T10:27:35;6.43;;;4.80;;
56653;SDS011;45096;52.302;4.634;2022-12-05T10:30:02;6.28;;;5.03;;
56653;SDS011;45096;52.302;4.634;2022-12-05T10:32:29;6.65;;;5.35;;
56653;SDS011;45096;52.302;4.634;2022-12-05T10:34:58;5.47;;;4.93;;
56653;SDS011;45096;52.302;4.634;2022-12-05T10:37:27;5.53;;;4.95;;
56653;SDS011;45096;52.302;4.634;2022-12-05T10:39:53;5.90;;;4.50;;
56653;SDS011;45096;52.302;4.634;2022-12-05T10:42:20;7.57;;;5.47;;
56653;SDS011;45096;52.302;4.634;2022-12-05T10:44:50;6.03;;;5.03;;
56653;SDS011;45096;52.302;4.634;2022-12-05T10:47:19;6.55;;;4.45;;
56653;SDS011;45096;52.302;4.634;2022-12-05T10:49:44;7.78;;;5.00;;
56653;SDS011;45096;52.302;4.634;2022-12-05T10:52:10;6.15;;;5.53;;
56653;SDS011;45096;52.302;4.634;2022-12-05T10:54:40;5.88;;;4.78;;
56653;SDS011;45096;52.302;4.634;2022-12-05T10:57:18;5.75;;;4.75;;
56653;SDS011;45096;52.302;4.634;2022-12-05T10:59:46;6.68;;;4.97;;
56653;SDS011;45096;52.302;4.634;2022-12-05T11:02:16;5.55;;;4.85;;
56653;SDS011;45096;52.302;4.634;2022-12-05T11:04:45;5.80;;;5.18;;
56653;SDS011;45096;52.302;4.634;2022-12-05T11:07:20;6.28;;;5.13;;
56653;SDS011;45096;52.302;4.634;2022-12-05T11:09:49;6.35;;;4.60;;
56653;SDS011;45096;52.302;4.634;2022-12-05T11:12:16;6.07;;;4.55;;
56653;SDS011;45096;52.302;4.634;2022-12-05T11:14:53;5.85;;;4.93;;
56653;SDS011;45096;52.302;4.634;2022-12-05T11:17:21;5.57;;;4.22;;
56653;SDS011;45096;52.302;4.634;2022-12-05T11:19:48;6.05;;;5.07;;
56653;SDS011;45096;52.302;4.634;2022-12-05T11:22:15;5.13;;;4.60;;
56653;SDS011;45096;52.302;4.634;2022-12-05T11:24:41;10.18;;;4.60;;
56653;SDS011;45096;52.302;4.634;2022-12-05T11:27:23;4.90;;;4.28;;
56653;SDS011;45096;52.302;4.634;2022-12-05T11:29:55;6.10;;;5.07;;
56653;SDS011;45096;52.302;4.634;2022-12-05T11:32:23;5.15;;;4.55;;
56653;SDS011;45096;52.302;4.634;2022-12-05T11:34:51;6.35;;;4.80;;
56653;SDS011;45096;52.302;4.634;2022-12-05T11:37:21;5.25;;;4.07;;
56653;SDS011;45096;52.302;4.634;2022-12-05T11:39:49;5.93;;;4.68;;
56653;SDS011;45096;52.302;4.634;2022-12-05T11:42:23;6.28;;;4.82;;
56653;SDS011;45096;52.302;4.634;2022-12-05T11:45:00;4.75;;;4.25;;
56653;SDS011;45096;52.302;4.634;2022-12-05T11:47:44;5.47;;;4.38;;
56653;SDS011;45096;52.302;4.634;2022-12-05T11:50:23;8.65;;;4.80;;
56653;SDS011;45096;52.302;4.634;2022-12-05T11:52:53;7.38;;;4.80;;
56653;SDS011;45096;52.302;4.634;2022-12-05T11:55:24;7.78;;;4.97;;
56653;SDS011;45096;52.302;4.634;2022-12-05T11:57:58;7.07;;;4.68;;
56653;SDS011;45096;52.302;4.634;2022-12-05T12:00:31;5.40;;;4.25;;
56653;SDS011;45096;52.302;4.634;2022-12-05T12:03:19;6.93;;;5.15;;
56653;SDS011;45096;52.302;4.634;2022-12-05T12:06:07;6.32;;;4.53;;
56653;SDS011;45096;52.302;4.634;2022-12-05T12:08:41;8.10;;;4.57;;
56653;SDS011;45096;52.302;4.634;2022-12-05T12:11:16;6.25;;;5.07;;
56653;SDS011;45096;52.302;4.634;2022-12-05T12:13:52;6.63;;;4.85;;
56653;SDS011;45096;52.302;4.634;2022-12-05T12:16:25;5.32;;;4.38;;
56653;SDS011;45096;52.302;4.634;2022-12-05T12:19:00;8.50;;;5.30;;
56653;SDS011;45096;52.302;4.634;2022-12-05T12:21:37;9.20;;;4.72;;
56653;SDS011;45096;52.302;4.634;2022-12-05T12:24:14;5.55;;;4.90;;
56653;SDS011;45096;52.302;4.634;2022-12-05T12:26:48;7.00;;;4.93;;
56653;SDS011;45096;52.302;4.634;2022-12-05T12:29:22;8.45;;;5.63;;
56653;SDS011;45096;52.302;4.634;2022-12-05T12:31:54;7.13;;;5.20;;
56653;SDS011;45096;52.302;4.634;2022-12-05T12:34:28;6.75;;;4.43;;
56653;SDS011;45096;52.302;4.634;2022-12-05T12:37:03;7.40;;;5.18;;
56653;SDS011;45096;52.302;4.634;2022-12-05T12:39:37;7.93;;;6.07;;
56653;SDS011;45096;52.302;4.634;2022-12-05T12:42:12;6.43;;;5.25;;
56653;SDS011;45096;52.302;4.634;2022-12-05T12:47:43;6.13;;;5.18;;
56653;SDS011;45096;52.302;4.634;2022-12-05T12:50:16;9.50;;;5.63;;
56653;SDS011;45096;52.302;4.634;2022-12-05T12:52:48;7.75;;;4.80;;
56653;SDS011;45096;52.302;4.634;2022-12-05T12:55:21;9.55;;;6.32;;
56653;SDS011;45096;52.302;4.634;2022-12-05T12:57:57;8.45;;;5.75;;
56653;SDS011;45096;52.302;4.634;2022-12-05T13:00:30;11.32;;;5.70;;
56653;SDS011;45096;52.302;4.634;2022-12-05T13:03:02;12.30;;;5.65;;
56653;SDS011;45096;52.302;4.634;2022-12-05T13:05:31;10.43;;;5.40;;
56653;SDS011;45096;52.302;4.634;2022-12-05T13:08:00;8.43;;;5.93;;
56653;SDS011;45096;52.302;4.634;2022-12-05T13:10:29;11.98;;;5.72;;
56653;SDS011;45096;52.302;4.634;2022-12-05T13:12:56;8.55;;;5.55;;
56653;SDS011;45096;52.302;4.634;2022-12-05T13:15:26;11.15;;;5.97;;
56653;SDS011;45096;52.302;4.634;2022-12-05T13:17:55;10.00;;;5.80;;
56653;SDS011;45096;52.302;4.634;2022-12-05T13:20:21;9.75;;;5.50;;
56653;SDS011;45096;52.302;4.634;2022-12-05T13:22:49;9.18;;;5.75;;
56653;SDS011;45096;52.302;4.634;2022-12-05T13:25:16;8.07;;;5.93;;
56653;SDS011;45096;52.302;4.634;2022-12-05T13:27:51;11.48;;;5.75;;
56653;SDS011;45096;52.302;4.634;2022-12-05T13:30:18;7.85;;;6.40;;
56653;SDS011;45096;52.302;4.634;2022-12-05T13:32:45;11.23;;;5.20;;
56653;SDS011;45096;52.302;4.634;2022-12-05T13:35:11;7.00;;;5.20;;
56653;SDS011;45096;52.302;4.634;2022-12-05T13:37:43;7.38;;;5.25;;
56653;SDS011;45096;52.302;4.634;2022-12-05T13:40:26;11.73;;;5.85;;
56653;SDS011;45096;52.302;4.634;2022-12-05T13:42:58;7.45;;;4.78;;
56653;SDS011;45096;52.302;4.634;2022-12-05T13:45:25;8.38;;;5.55;;
56653;SDS011;45096;52.302;4.634;2022-12-05T13:47:53;9.90;;;5.18;;
56653;SDS011;45096;52.302;4.634;2022-12-05T13:50:24;8.73;;;5.35;;
56653;SDS011;45096;52.302;4.634;2022-12-05T13:52:53;9.80;;;5.30;;
56653;SDS011;45096;52.302;4.634;2022-12-05T13:55:21;6.72;;;5.13;;
56653;SDS011;45096;52.302;4.634;2022-12-05T13:57:51;9.00;;;5.90;;
56653;SDS011;45096;52.302;4.634;2022-12-05T14:00:22;9.10;;;5.78;;
56653;SDS011;45096;52.302;4.634;2022-12-05T14:02:54;7.85;;;5.32;;
56653;SDS011;45096;52.302;4.634;2022-12-05T14:05:37;9.35;;;5.05;;
56653;SDS011;45096;52.302;4.634;2022-12-05T14:11:09;7.88;;;5.20;;
56653;SDS011;45096;52.302;4.634;2022-12-05T14:13:40;8.90;;;5.68;;
56653;SDS011;45096;52.302;4.634;2022-12-05T14:22:12;5.93;;;4.35;;
56653;SDS011;45096;52.302;4.634;2022-12-05T14:24:53;12.65;;;5.60;;
56653;SDS011;45096;52.302;4.634;2022-12-05T14:27:22;8.48;;;5.63;;
56653;SDS011;45096;52.302;4.634;2022-12-05T14:29:58;9.25;;;5.38;;
56653;SDS011;45096;52.302;4.634;2022-12-05T14:32:27;6.43;;;5.00;;
56653;SDS011;45096;52.302;4.634;2022-12-05T14:34:56;6.15;;;5.32;;
56653;SDS011;45096;52.302;4.634;2022-12-05T14:37:26;8.70;;;4.70;;
56653;SDS011;45096;52.302;4.634;2022-12-05T14:39:53;6.38;;;5.13;;
56653;SDS011;45096;52.302;4.634;2022-12-05T14:42:21;7.85;;;5.93;;
56653;SDS011;45096;52.302;4.634;2022-12-05T14:44:50;8.10;;;4.65;;
56653;SDS011;45096;52.302;4.634;2022-12-05T14:47:18;8.63;;;5.50;;
56653;SDS011;45096;52.302;4.634;2022-12-05T14:49:52;8.05;;;4.65;;
56653;SDS011;45096;52.302;4.634;2022-12-05T14:52:21;7.53;;;5.20;;
56653;SDS011;45096;52.302;4.634;2022-12-05T14:54:47;6.53;;;4.40;;
56653;SDS011;45096;52.302;4.634;2022-12-05T14:57:14;9.75;;;4.95;;